Latest Weather Observations for Point Fawcett

IDD60901

Issued at 7:35 pm CST Friday 29 August 2014 (issued every 10 minutes, with the page automatically refreshed every 10 minutes)

About weather observations | Map of Darwin area stations | Latest observations for Darwin area | Other Formats
Station Details ID: 200731 Name: POINT FAWCETT Lat: -11.76 Lon: 130.03 Height: 6.5 m
Data from the previous 72 hours. | See also: Recent months at Point Fawcett
Date/Time
CST
Tmp

°C
App
Tmp
°C
Dew
Point
°C
Rel
Hum
%
Delta-T

°C
Wind Press
QNH
hPa
Press
MSL
hPa
Rain
since
9 am
mm
Dir
 
Spd
km/h
Gust
km/h
Spd
kts
Gust
kts
29/07:30pm 20.0 19.5 12.5 62 4.2 SE 7 7 4 4 1013.2 - -
29/07:00pm 22.7 22.4 12.6 53 5.8 E 6 7 3 4 1012.8 - -
29/06:30pm 25.4 25.1 13.3 47 7.1 ESE 7 11 4 6 1012.6 - -
29/06:00pm 28.0 27.3 12.0 37 9.3 SSE 7 13 4 7 1012.2 1012.2 -
29/05:30pm 29.1 27.0 8.2 27 11.4 SE 9 17 5 9 1012.0 - -
29/05:00pm 29.4 26.8 9.5 29 11.1 SE 13 20 7 11 1011.9 - -
29/04:30pm 30.1 26.8 7.9 25 12.1 SE 15 24 8 13 1012.0 - -
29/04:00pm 30.2 26.9 9.7 28 11.5 SSE 17 30 9 16 1012.2 - -
29/03:30pm 30.3 26.9 9.2 27 11.8 SE 17 28 9 15 1012.5 - -
29/03:00pm 29.6 25.8 9.7 29 11.2 SSE 20 33 11 18 1012.7 1012.7 -
29/02:30pm 30.8 28.2 10.7 29 11.5 SE 15 28 8 15 1012.8 - -
29/02:00pm 30.4 27.5 9.8 28 11.6 SE 15 30 8 16 1013.1 - -
29/01:30pm 30.2 27.1 11.7 32 10.8 ESE 19 37 10 20 1013.2 - -
29/01:00pm 30.8 28.8 14.0 36 10.1 SE 17 33 9 18 1013.6 - -
29/12:30pm 30.4 28.0 11.4 31 11.0 ESE 15 24 8 13 1014.2 - -
29/12:00pm 30.0 27.1 11.0 31 10.9 E 17 32 9 17 1014.5 1014.5 -
29/11:30am 30.0 27.8 12.0 33 10.5 E 15 28 8 15 1015.0 - -
29/11:00am 29.5 27.8 12.4 35 10.0 ESE 13 19 7 10 1015.3 - -
29/10:30am 28.4 27.8 15.7 46 7.8 E 13 22 7 12 1015.4 - -
29/10:00am 27.9 28.7 17.4 52 6.6 NE 9 13 5 7 1015.5 - -
29/09:30am 26.7 27.1 17.2 56 5.9 ENE 11 15 6 8 1015.7 - -
29/09:00am 24.8 25.8 16.8 61 4.9 E 7 11 4 6 1015.7 1015.7 -
29/08:30am 21.5 23.7 19.6 89 1.2 ENE 7 11 4 6 1015.5 - -
29/08:00am 17.2 18.1 16.6 96 0.4 ENE 7 9 4 5 1015.3 - -
29/07:30am 14.6 14.5 13.8 95 0.4 ESE 7 9 4 5 1015.2 - -
29/07:00am 13.7 13.3 12.9 95 0.4 E 7 9 4 5 1014.8 - -
29/06:30am 13.5 13.0 12.7 95 0.4 E 7 9 4 5 1014.3 - -
29/06:00am 13.5 13.0 12.6 94 0.5 E 7 9 4 5 1014.2 1014.2 -
29/05:30am 13.5 13.0 12.6 94 0.5 ESE 7 9 4 5 1013.8 - -
29/05:00am 13.3 12.9 12.4 94 0.5 ESE 6 7 3 4 1013.7 - -
29/04:30am 13.3 12.8 12.2 93 0.6 ESE 6 7 3 4 1013.6 - -
29/04:00am 13.3 12.8 12.2 93 0.6 ESE 6 7 3 4 1013.6 - -
29/03:30am 13.3 12.7 12.2 93 0.6 ESE 7 7 4 4 1013.5 - -
29/03:00am 13.8 13.3 12.5 92 0.7 ESE 7 11 4 6 1013.5 1013.5 -
29/02:30am 13.7 13.1 12.4 92 0.7 ESE 7 9 4 5 1013.6 - -
29/02:00am 13.7 13.1 12.3 91 0.8 E 7 9 4 5 1013.6 - -
29/01:30am 14.1 13.6 12.5 90 0.9 SE 7 9 4 5 1013.8 - -
29/01:00am 14.5 14.1 12.9 90 0.9 SE 7 9 4 5 1014.0 - -
29/12:30am 14.4 13.8 12.4 88 1.1 SE 7 7 4 4 1014.1 - -
29/12:00am 14.7 14.2 12.7 88 1.1 SE 7 9 4 5 1014.4 1014.4 -
 
Date/Time
CST
Tmp

°C
App
Tmp
°C
Dew
Point
°C
Rel
Hum
%
Delta-T

°C
Wind Press
QNH
hPa
Press
MSL
hPa
Rain
since
9 am
mm
Dir
 
Spd
km/h
Gust
km/h
Spd
kts
Gust
kts
28/11:30pm 15.1 14.3 13.0 87 1.2 SE 9 9 5 5 1014.4 - -
28/11:00pm 15.6 15.2 13.1 85 1.4 ESE 7 9 4 5 1014.4 - -
28/10:30pm 15.8 15.3 12.7 82 1.7 E 7 9 4 5 1014.4 - -
28/10:00pm 16.5 16.1 12.5 77 2.2 ESE 6 7 3 4 1014.4 - -
28/09:30pm 17.7 18.1 12.4 71 2.9 NE 2 6 1 3 1014.2 - -
28/09:00pm 18.8 18.5 13.2 70 3.2 N 7 11 4 6 1014.1 1014.1 -
28/08:30pm 19.7 19.6 13.4 67 3.6 NNW 6 9 3 5 1013.8 - -
28/08:00pm 18.9 18.7 11.9 64 3.9 NNW 4 9 2 5 1013.5 - -
28/07:30pm 21.8 21.3 13.7 60 4.7 N 9 15 5 8 1013.3 - -
28/07:00pm 20.9 19.8 10.7 52 5.6 SSE 7 9 4 5 1012.7 - -
28/06:30pm 25.4 24.2 10.4 39 8.3 S 7 9 4 5 1012.5 - -
28/06:00pm 27.6 25.4 8.0 29 10.6 SSE 9 13 5 7 1012.2 1012.2 -
28/05:30pm 29.0 26.1 4.5 21 12.6 SE 9 19 5 10 1012.0 - -
28/05:00pm 29.7 26.6 5.7 22 12.6 ESE 11 15 6 8 1011.9 - -
28/04:30pm 30.6 27.8 7.1 23 12.7 SE 11 22 6 12 1011.7 - -
28/04:00pm 30.3 26.0 3.4 18 13.6 ESE 15 26 8 14 1011.6 - -
28/03:30pm 30.5 25.1 1.0 15 14.4 ESE 19 30 10 16 1011.7 - -
28/03:00pm 30.5 25.2 1.9 16 14.2 ESE 19 32 10 17 1012.0 1012.0 -
28/02:30pm 30.0 24.8 2.3 17 13.8 SE 19 32 10 17 1012.1 - -
28/02:00pm 30.6 25.6 4.4 19 13.5 SE 20 28 11 15 1012.5 - -
28/01:30pm 29.9 24.5 2.2 17 13.7 ESE 20 39 11 21 1012.9 - -
28/01:00pm 30.2 24.9 4.8 20 13.2 E 22 37 12 20 1013.3 - -
28/12:30pm 29.9 24.9 4.5 20 13.1 E 20 35 11 19 1013.7 - -
28/12:00pm 30.0 25.7 5.3 21 12.9 ESE 17 32 9 17 1014.4 1014.4 -
28/11:30am 29.7 25.8 7.0 24 12.2 ESE 17 33 9 18 1014.7 - -
28/11:00am 29.2 25.7 8.8 28 11.3 ESE 17 30 9 16 1014.9 - -
28/10:30am 28.6 25.8 11.2 34 10.0 ESE 17 26 9 14 1015.2 - -
28/10:00am 28.4 27.3 14.3 42 8.5 SE 13 30 7 16 1015.3 - -
28/09:30am 27.4 27.0 16.1 50 7.0 ESE 13 20 7 11 1015.2 - -
28/09:00am 26.2 27.3 18.1 61 5.1 ESE 9 15 5 8 1015.0 1015.0 -
28/08:30am 23.8 26.0 19.7 78 2.6 ESE 7 11 4 6 1014.9 - -
28/08:29am 23.7 26.0 19.8 79 2.5 ESE 7 11 4 6 1014.9 - -
28/08:00am 18.6 19.8 17.4 93 0.7 ESE 7 9 4 5 1014.8 - -
28/07:30am 15.9 16.2 14.9 94 0.6 ESE 7 9 4 5 1014.4 - -
28/07:00am 15.3 15.3 14.3 94 0.6 ESE 7 11 4 6 1014.0 - -
28/06:30am 15.6 15.4 14.6 94 0.6 ESE 9 13 5 7 1013.7 - -
28/06:00am 15.6 15.4 14.6 94 0.6 ESE 9 11 5 6 1013.6 1013.6 -
28/05:30am 15.5 15.2 14.4 93 0.6 E 9 11 5 6 1013.5 - -
28/05:00am 15.7 15.9 14.6 93 0.6 E 7 9 4 5 1013.4 - -
28/04:30am 15.4 15.1 14.3 93 0.6 E 9 13 5 7 1013.1 - -
28/04:00am 15.4 15.4 14.1 92 0.7 ESE 7 9 4 5 1013.1 - -
28/03:30am 15.1 15.0 13.8 92 0.7 SE 7 11 4 6 1013.0 - -
28/03:00am 15.1 14.5 13.6 91 0.8 SSE 9 11 5 6 1013.2 1013.2 -
28/02:30am 15.0 14.8 13.5 91 0.8 SE 7 9 4 5 1013.2 - -
28/02:00am 14.9 14.2 13.3 90 0.9 SE 9 11 5 6 1013.3 - -
28/01:30am 14.9 14.2 13.3 90 0.9 SE 9 11 5 6 1013.6 - -
28/01:00am 14.6 13.8 12.8 89 1.0 ESE 9 11 5 6 1014.0 - -
28/12:30am 14.7 14.3 12.9 89 1.0 ESE 7 9 4 5 1014.4 - -
28/12:00am 15.0 14.6 12.9 87 1.2 SE 7 9 4 5 1014.4 1014.4 -
 
Date/Time
CST
Tmp

°C
App
Tmp
°C
Dew
Point
°C
Rel
Hum
%
Delta-T

°C
Wind Press
QNH
hPa
Press
MSL
hPa
Rain
since
9 am
mm
Dir
 
Spd
km/h
Gust
km/h
Spd
kts
Gust
kts
27/11:30pm 15.2 14.8 12.9 86 1.3 SE 7 9 4 5 1014.3 - -
27/11:00pm 15.8 15.4 13.1 84 1.5 SSE 7 9 4 5 1014.2 - -
27/10:30pm 16.4 15.7 13.3 82 1.7 SSE 9 9 5 5 1014.1 - -
27/10:00pm 16.8 16.3 12.5 76 2.4 SSE 7 9 4 5 1014.0 - -
27/09:30pm 18.1 17.7 13.0 72 2.9 SSE 7 9 4 5 1013.7 - -
27/09:00pm 19.7 18.9 12.9 65 3.8 ENE 9 13 5 7 1013.1 1013.1 -
27/08:30pm 19.4 18.6 14.0 71 3.1 ENE 11 15 6 8 1013.0 - -
27/08:00pm 18.3 18.1 11.8 66 3.6 SE 4 9 2 5 1012.6 - -
27/07:30pm 18.9 17.7 10.2 57 4.7 SSE 7 9 4 5 1012.3 - -
27/07:00pm 21.3 20.1 10.2 49 6.0 E 7 7 4 4 1011.9 - -
27/06:30pm 25.7 24.6 9.9 37 8.7 E 6 6 3 3 1011.5 - -
27/06:00pm 29.6 27.8 8.1 26 11.8 E 7 11 4 6 1011.3 1011.3 -
27/05:30pm 30.6 27.7 6.5 22 12.9 E 11 20 6 11 1011.0 - -
27/05:00pm 31.2 28.3 6.3 21 13.3 E 11 17 6 9 1011.0 - -
27/04:30pm 31.4 27.4 6.5 21 13.4 E 17 30 9 16 1010.9 - -
27/04:00pm 31.1 26.8 6.9 22 13.1 E 19 30 10 16 1011.0 - -
27/03:30pm 31.4 27.7 7.8 23 13.0 ESE 17 33 9 18 1011.2 - -
27/03:00pm 31.3 26.8 7.1 22 13.1 E 20 35 11 19 1011.4 1011.4 -
27/02:30pm 31.2 26.4 5.6 20 13.5 E 20 33 11 18 1011.6 - -
27/02:00pm 30.5 24.2 5.7 21 13.1 ESE 28 44 15 24 1012.0 - -
27/01:30pm 30.8 27.1 10.2 28 11.7 E 20 39 11 21 1012.3 - -
27/01:00pm 30.8 27.9 12.2 32 10.9 ESE 19 35 10 19 1012.8 - -
27/12:30pm 30.1 27.1 12.1 33 10.5 ESE 19 33 10 18 1013.3 - -
27/12:00pm 30.0 27.1 12.9 35 10.1 ESE 20 35 11 19 1013.7 1013.7 -
27/11:30am 30.4 27.9 12.3 33 10.6 ESE 17 39 9 21 1014.1 - -
27/11:00am 29.6 27.3 12.9 35 9.9 ESE 17 30 9 16 1014.4 - -
27/10:30am 29.5 28.7 15.2 41 8.8 E 13 20 7 11 1014.5 - -
27/10:00am 28.4 27.8 15.7 46 7.8 ENE 13 20 7 11 1014.8 - -
27/09:30am 27.0 26.6 16.3 52 6.6 ENE 13 17 7 9 1014.8 - -
27/09:00am 25.3 25.9 16.7 59 5.3 ENE 9 15 5 8 1014.5 1014.5 -
27/08:30am 22.6 24.2 18.2 76 2.8 ENE 7 11 4 6 1014.2 - -
27/08:00am 18.6 19.9 17.6 94 0.6 ENE 7 11 4 6 1013.7 - -
27/07:30am 15.6 15.6 14.3 92 0.7 ESE 7 9 4 5 1013.4 - -
27/07:00am 15.5 15.6 13.9 90 0.9 SE 6 7 3 4 1013.2 - -
27/06:30am 16.7 16.6 14.9 89 1.0 E 9 11 5 6 1013.0 - -
27/06:00am 18.5 19.2 17.0 91 0.9 E 9 13 5 7 1012.8 1012.8 -
27/05:30am 19.3 19.9 18.5 95 0.5 E 13 19 7 10 1012.6 - -
27/05:00am 18.3 18.9 17.7 96 0.4 E 11 17 6 9 1012.1 - -
27/04:30am 16.4 16.2 15.6 95 0.5 E 11 15 6 8 1012.1 - -
27/04:00am 14.8 14.7 13.8 94 0.6 ESE 7 9 4 5 1011.9 - -
27/03:30am 14.8 14.6 13.7 93 0.6 E 7 7 4 4 1011.8 - -
27/03:00am 15.5 15.6 14.4 93 0.6 E 7 9 4 5 1012.1 1012.1 -
27/02:30am 15.5 15.6 14.4 93 0.6 SE 7 9 4 5 1012.3 - -
27/02:00am 15.8 16.0 14.7 93 0.6 SSE 7 9 4 5 1012.5 - -
27/01:30am 15.9 16.1 14.6 92 0.7 S 7 9 4 5 1012.8 - -
27/01:00am 15.9 16.1 14.6 92 0.7 SSE 7 7 4 4 1013.1 - -
27/12:30am 15.9 16.0 14.4 91 0.9 S 7 11 4 6 1013.1 - -
27/12:00am 16.2 16.0 14.6 90 0.9 S 9 13 5 7 1013.3 1013.3 -
 
Date/Time
CST
Tmp

°C
App
Tmp
°C
Dew
Point
°C
Rel
Hum
%
Delta-T

°C
Wind Press
QNH
hPa
Press
MSL
hPa
Rain
since
9 am
mm
Dir
 
Spd
km/h
Gust
km/h
Spd
kts
Gust
kts
26/11:30pm 16.0 15.6 14.2 89 1.0 S 9 11 5 6 1013.4 - -
26/11:00pm 16.3 16.3 14.1 87 1.2 S 7 9 4 5 1013.5 - -
26/10:30pm 16.5 16.4 13.8 84 1.5 SSE 7 7 4 4 1013.5 - -
26/10:00pm 16.9 16.8 13.8 82 1.8 SSE 7 9 4 5 1013.4 - -
26/09:30pm 17.0 16.6 13.1 78 2.2 SSE 7 11 4 6 1013.2 - -
26/09:00pm 17.3 16.7 12.4 73 2.7 SSE 7 9 4 5 1012.9 1012.9 -
26/08:30pm 17.8 17.1 12.0 69 3.2 SSE 7 11 4 6 1012.6 - -
26/08:00pm 18.5 17.1 10.8 61 4.2 S 9 11 5 6 1012.3 - -

Latest Capital City Observations: Canberra | Sydney | Melbourne | Brisbane | Adelaide | Perth | Hobart | Darwin

Other Formats:

Comma delimited format used in spreadsheet applications
http://www.bom.gov.au/fwo/IDD60901/IDD60901.94122.axf

JavaScript Object Notation format (JSON) in row-major order
http://www.bom.gov.au/fwo/IDD60901/IDD60901.94122.json